sensor_id;sensor_type;location;lat;lon;timestamp;temperature;humidity
44886;DHT22;36669;51.428;21.162;2024-03-23T00:55:29;9.80;99.90
44886;DHT22;36669;51.428;21.162;2024-03-23T00:57:54;9.80;99.90
44886;DHT22;36669;51.428;21.162;2024-03-23T01:00:27;9.80;99.90
44886;DHT22;36669;51.428;21.162;2024-03-23T01:02:53;9.80;99.90
44886;DHT22;36669;51.428;21.162;2024-03-23T01:05:19;9.80;99.90
44886;DHT22;36669;51.428;21.162;2024-03-23T01:07:47;9.70;99.90
44886;DHT22;36669;51.428;21.162;2024-03-23T01:10:15;9.70;99.90
44886;DHT22;36669;51.428;21.162;2024-03-23T01:12:42;9.70;99.90
44886;DHT22;36669;51.428;21.162;2024-03-23T01:15:08;9.60;99.90
44886;DHT22;36669;51.428;21.162;2024-03-23T01:17:37;9.60;99.90
44886;DHT22;36669;51.428;21.162;2024-03-23T01:20:04;9.50;99.90
44886;DHT22;36669;51.428;21.162;2024-03-23T01:22:34;9.50;99.90
44886;DHT22;36669;51.428;21.162;2024-03-23T01:24:59;9.40;99.90
44886;DHT22;36669;51.428;21.162;2024-03-23T01:27:25;9.40;99.90
44886;DHT22;36669;51.428;21.162;2024-03-23T01:29:51;9.30;99.90
44886;DHT22;36669;51.428;21.162;2024-03-23T01:32:19;9.30;99.90
44886;DHT22;36669;51.428;21.162;2024-03-23T01:34:45;9.30;99.90
44886;DHT22;36669;51.428;21.162;2024-03-23T01:37:13;9.30;99.90
44886;DHT22;36669;51.428;21.162;2024-03-23T01:39:41;9.30;99.90
44886;DHT22;36669;51.428;21.162;2024-03-23T01:42:07;9.20;99.90
44886;DHT22;36669;51.428;21.162;2024-03-23T01:44:34;9.20;99.90
44886;DHT22;36669;51.428;21.162;2024-03-23T01:47:00;9.20;99.90
44886;DHT22;36669;51.428;21.162;2024-03-23T01:49:27;9.10;99.90
44886;DHT22;36669;51.428;21.162;2024-03-23T01:51:57;9.10;99.90
44886;DHT22;36669;51.428;21.162;2024-03-23T01:54:24;9.00;99.90
44886;DHT22;36669;51.428;21.162;2024-03-23T01:56:51;9.00;99.90
44886;DHT22;36669;51.428;21.162;2024-03-23T01:59:18;9.00;99.90
44886;DHT22;36669;51.428;21.162;2024-03-23T02:01:44;8.90;99.90
44886;DHT22;36669;51.428;21.162;2024-03-23T02:04:09;8.90;99.90
44886;DHT22;36669;51.428;21.162;2024-03-23T02:06:37;8.90;99.90
44886;DHT22;36669;51.428;21.162;2024-03-23T02:09:03;8.90;99.90
44886;DHT22;36669;51.428;21.162;2024-03-23T02:11:29;8.90;99.90
44886;DHT22;36669;51.428;21.162;2024-03-23T02:13:57;8.80;99.90
44886;DHT22;36669;51.428;21.162;2024-03-23T02:16:23;8.80;99.90
44886;DHT22;36669;51.428;21.162;2024-03-23T02:18:50;8.80;99.90
44886;DHT22;36669;51.428;21.162;2024-03-23T02:21:17;8.70;99.90
44886;DHT22;36669;51.428;21.162;2024-03-23T02:23:43;8.70;99.90
44886;DHT22;36669;51.428;21.162;2024-03-23T02:26:10;8.70;99.90
44886;DHT22;36669;51.428;21.162;2024-03-23T02:28:37;8.70;99.90
44886;DHT22;36669;51.428;21.162;2024-03-23T02:31:03;8.70;99.90
44886;DHT22;36669;51.428;21.162;2024-03-23T02:33:31;8.70;99.90
44886;DHT22;36669;51.428;21.162;2024-03-23T02:35:59;8.70;99.90
44886;DHT22;36669;51.428;21.162;2024-03-23T02:38:25;8.70;99.90
44886;DHT22;36669;51.428;21.162;2024-03-23T02:40:51;8.70;99.90
44886;DHT22;36669;51.428;21.162;2024-03-23T02:43:23;8.60;99.90
44886;DHT22;36669;51.428;21.162;2024-03-23T02:45:51;8.70;99.90
44886;DHT22;36669;51.428;21.162;2024-03-23T02:48:17;8.60;99.90
44886;DHT22;36669;51.428;21.162;2024-03-23T02:50:43;8.60;99.90
44886;DHT22;36669;51.428;21.162;2024-03-23T02:53:10;8.50;99.90
44886;DHT22;36669;51.428;21.162;2024-03-23T02:55:37;8.60;99.90
44886;DHT22;36669;51.428;21.162;2024-03-23T02:58:03;8.60;99.90
44886;DHT22;36669;51.428;21.162;2024-03-23T03:00:30;8.50;99.90
44886;DHT22;36669;51.428;21.162;2024-03-23T03:02:58;8.40;99.90
44886;DHT22;36669;51.428;21.162;2024-03-23T03:05:24;8.50;99.90
44886;DHT22;36669;51.428;21.162;2024-03-23T03:07:51;8.50;99.90
44886;DHT22;36669;51.428;21.162;2024-03-23T03:10:18;8.40;99.90
44886;DHT22;36669;51.428;21.162;2024-03-23T03:12:43;8.40;99.90
44886;DHT22;36669;51.428;21.162;2024-03-23T03:15:09;8.40;99.90
44886;DHT22;36669;51.428;21.162;2024-03-23T03:17:37;8.40;99.90
44886;DHT22;36669;51.428;21.162;2024-03-23T03:20:03;8.40;99.90
44886;DHT22;36669;51.428;21.162;2024-03-23T03:22:31;8.30;99.90
44886;DHT22;36669;51.428;21.162;2024-03-23T03:24:57;8.40;99.90
44886;DHT22;36669;51.428;21.162;2024-03-23T03:27:26;8.40;99.90
44886;DHT22;36669;51.428;21.162;2024-03-23T03:29:52;8.30;99.90
44886;DHT22;36669;51.428;21.162;2024-03-23T03:32:18;8.30;99.90
44886;DHT22;36669;51.428;21.162;2024-03-23T03:34:44;8.30;99.90
44886;DHT22;36669;51.428;21.162;2024-03-23T03:37:12;8.30;99.90
44886;DHT22;36669;51.428;21.162;2024-03-23T03:39:38;8.30;99.90
44886;DHT22;36669;51.428;21.162;2024-03-23T03:42:04;8.40;99.90
44886;DHT22;36669;51.428;21.162;2024-03-23T03:44:32;8.40;99.90
44886;DHT22;36669;51.428;21.162;2024-03-23T03:46:59;8.40;99.90
44886;DHT22;36669;51.428;21.162;2024-03-23T03:49:25;8.40;99.90
44886;DHT22;36669;51.428;21.162;2024-03-23T03:51:52;8.40;99.90
44886;DHT22;36669;51.428;21.162;2024-03-23T03:54:20;8.40;99.90
44886;DHT22;36669;51.428;21.162;2024-03-23T03:56:48;8.40;99.90
44886;DHT22;36669;51.428;21.162;2024-03-23T03:59:17;8.30;99.90
44886;DHT22;36669;51.428;21.162;2024-03-23T04:01:43;8.30;99.90
44886;DHT22;36669;51.428;21.162;2024-03-23T04:04:10;8.30;99.90
44886;DHT22;36669;51.428;21.162;2024-03-23T04:06:38;8.40;99.90
44886;DHT22;36669;51.428;21.162;2024-03-23T04:09:06;8.30;99.90
44886;DHT22;36669;51.428;21.162;2024-03-23T04:11:35;8.40;99.90
44886;DHT22;36669;51.428;21.162;2024-03-23T04:14:01;8.40;99.90
44886;DHT22;36669;51.428;21.162;2024-03-23T04:16:33;8.40;99.90
44886;DHT22;36669;51.428;21.162;2024-03-23T04:19:02;8.40;99.90
44886;DHT22;36669;51.428;21.162;2024-03-23T04:21:30;8.40;99.90
44886;DHT22;36669;51.428;21.162;2024-03-23T04:23:58;8.40;99.90
44886;DHT22;36669;51.428;21.162;2024-03-23T04:26:25;8.40;99.90
44886;DHT22;36669;51.428;21.162;2024-03-23T04:28:51;8.30;99.90
44886;DHT22;36669;51.428;21.162;2024-03-23T04:31:20;8.30;99.90
44886;DHT22;36669;51.428;21.162;2024-03-23T04:33:46;8.30;99.90
44886;DHT22;36669;51.428;21.162;2024-03-23T04:36:13;8.40;99.90
44886;DHT22;36669;51.428;21.162;2024-03-23T04:38:39;8.40;99.90
44886;DHT22;36669;51.428;21.162;2024-03-23T04:41:06;8.40;99.90
44886;DHT22;36669;51.428;21.162;2024-03-23T04:43:32;8.40;99.90
44886;DHT22;36669;51.428;21.162;2024-03-23T04:45:58;8.50;99.90
44886;DHT22;36669;51.428;21.162;2024-03-23T04:48:25;8.50;99.90
44886;DHT22;36669;51.428;21.162;2024-03-23T04:50:58;8.50;99.90
44886;DHT22;36669;51.428;21.162;2024-03-23T04:53:25;8.50;99.90
44886;DHT22;36669;51.428;21.162;2024-03-23T04:55:57;8.50;99.90
44886;DHT22;36669;51.428;21.162;2024-03-23T04:58:27;8.50;99.90
44886;DHT22;36669;51.428;21.162;2024-03-23T05:00:58;8.50;99.90
44886;DHT22;36669;51.428;21.162;2024-03-23T05:03:25;8.50;99.90
44886;DHT22;36669;51.428;21.162;2024-03-23T05:05:54;8.50;99.90
44886;DHT22;36669;51.428;21.162;2024-03-23T05:08:20;8.50;99.90
44886;DHT22;36669;51.428;21.162;2024-03-23T05:10:48;8.50;99.90
44886;DHT22;36669;51.428;21.162;2024-03-23T05:13:15;8.50;99.90
44886;DHT22;36669;51.428;21.162;2024-03-23T05:15:42;8.60;99.90
44886;DHT22;36669;51.428;21.162;2024-03-23T05:18:11;8.60;99.90
44886;DHT22;36669;51.428;21.162;2024-03-23T05:20:39;8.60;99.90
44886;DHT22;36669;51.428;21.162;2024-03-23T05:23:06;8.60;99.90
44886;DHT22;36669;51.428;21.162;2024-03-23T05:25:33;8.60;99.90
44886;DHT22;36669;51.428;21.162;2024-03-23T05:28:02;8.70;99.90
44886;DHT22;36669;51.428;21.162;2024-03-23T05:30:28;8.60;99.90
44886;DHT22;36669;51.428;21.162;2024-03-23T05:32:54;8.60;99.90
44886;DHT22;36669;51.428;21.162;2024-03-23T05:35:23;8.60;99.90
44886;DHT22;36669;51.428;21.162;2024-03-23T05:37:49;8.60;99.90
44886;DHT22;36669;51.428;21.162;2024-03-23T05:40:17;8.60;99.90
44886;DHT22;36669;51.428;21.162;2024-03-23T05:42:44;8.60;99.90
44886;DHT22;36669;51.428;21.162;2024-03-23T05:45:12;8.60;99.90
44886;DHT22;36669;51.428;21.162;2024-03-23T05:47:39;8.70;99.90
44886;DHT22;36669;51.428;21.162;2024-03-23T05:50:08;8.70;99.90
44886;DHT22;36669;51.428;21.162;2024-03-23T05:52:35;8.70;99.90
44886;DHT22;36669;51.428;21.162;2024-03-23T05:55:02;8.70;99.90
44886;DHT22;36669;51.428;21.162;2024-03-23T05:57:29;8.70;99.90
44886;DHT22;36669;51.428;21.162;2024-03-23T05:59:55;8.70;99.90
44886;DHT22;36669;51.428;21.162;2024-03-23T06:02:20;8.70;99.90
44886;DHT22;36669;51.428;21.162;2024-03-23T06:04:46;8.70;99.90
44886;DHT22;36669;51.428;21.162;2024-03-23T06:07:13;8.80;99.90
44886;DHT22;36669;51.428;21.162;2024-03-23T06:09:44;8.80;99.90
44886;DHT22;36669;51.428;21.162;2024-03-23T06:12:09;8.80;99.90
44886;DHT22;36669;51.428;21.162;2024-03-23T06:14:35;8.80;99.90
44886;DHT22;36669;51.428;21.162;2024-03-23T06:17:02;8.80;99.90
44886;DHT22;36669;51.428;21.162;2024-03-23T06:19:29;8.80;99.90
44886;DHT22;36669;51.428;21.162;2024-03-23T06:21:56;8.90;99.90
44886;DHT22;36669;51.428;21.162;2024-03-23T06:24:22;8.90;99.90
44886;DHT22;36669;51.428;21.162;2024-03-23T06:26:48;8.90;99.90
44886;DHT22;36669;51.428;21.162;2024-03-23T06:29:14;8.90;99.90
44886;DHT22;36669;51.428;21.162;2024-03-23T06:31:40;9.00;99.90
44886;DHT22;36669;51.428;21.162;2024-03-23T06:34:09;8.90;99.90
44886;DHT22;36669;51.428;21.162;2024-03-23T06:36:35;9.00;99.90
44886;DHT22;36669;51.428;21.162;2024-03-23T06:39:05;9.00;99.90
44886;DHT22;36669;51.428;21.162;2024-03-23T06:41:30;9.00;99.90
44886;DHT22;36669;51.428;21.162;2024-03-23T06:43:57;9.00;99.90
44886;DHT22;36669;51.428;21.162;2024-03-23T06:46:25;9.10;99.90
44886;DHT22;36669;51.428;21.162;2024-03-23T06:48:52;9.10;99.90
44886;DHT22;36669;51.428;21.162;2024-03-23T06:51:17;9.20;99.90
44886;DHT22;36669;51.428;21.162;2024-03-23T06:53:46;9.20;99.90
44886;DHT22;36669;51.428;21.162;2024-03-23T06:56:11;9.10;99.90
44886;DHT22;36669;51.428;21.162;2024-03-23T06:58:38;9.20;99.90
44886;DHT22;36669;51.428;21.162;2024-03-23T07:01:05;9.20;99.90
44886;DHT22;36669;51.428;21.162;2024-03-23T07:03:34;9.20;99.90
44886;DHT22;36669;51.428;21.162;2024-03-23T07:06:01;9.20;99.90
44886;DHT22;36669;51.428;21.162;2024-03-23T07:08:29;9.30;99.90
44886;DHT22;36669;51.428;21.162;2024-03-23T07:10:56;9.30;99.90
44886;DHT22;36669;51.428;21.162;2024-03-23T07:13:23;9.30;99.90
44886;DHT22;36669;51.428;21.162;2024-03-23T07:15:53;9.30;99.90
44886;DHT22;36669;51.428;21.162;2024-03-23T07:18:21;9.40;99.90
44886;DHT22;36669;51.428;21.162;2024-03-23T07:20:57;9.30;99.90
44886;DHT22;36669;51.428;21.162;2024-03-23T07:23:23;9.40;99.90
44886;DHT22;36669;51.428;21.162;2024-03-23T07:26:06;9.40;99.90
44886;DHT22;36669;51.428;21.162;2024-03-23T07:28:34;9.40;99.90
44886;DHT22;36669;51.428;21.162;2024-03-23T07:31:12;9.40;99.90
44886;DHT22;36669;51.428;21.162;2024-03-23T07:33:43;9.40;99.90
44886;DHT22;36669;51.428;21.162;2024-03-23T07:36:10;9.40;99.90
44886;DHT22;36669;51.428;21.162;2024-03-23T07:38:41;9.40;99.90
44886;DHT22;36669;51.428;21.162;2024-03-23T07:41:16;9.40;99.90
44886;DHT22;36669;51.428;21.162;2024-03-23T07:43:45;9.50;99.90
44886;DHT22;36669;51.428;21.162;2024-03-23T07:46:12;9.50;99.90
44886;DHT22;36669;51.428;21.162;2024-03-23T07:48:40;9.50;99.90
44886;DHT22;36669;51.428;21.162;2024-03-23T07:51:18;9.50;99.90
44886;DHT22;36669;51.428;21.162;2024-03-23T07:53:45;9.60;99.90
44886;DHT22;36669;51.428;21.162;2024-03-23T07:56:24;9.60;99.90
44886;DHT22;36669;51.428;21.162;2024-03-23T07:58:49;9.60;99.90
44886;DHT22;36669;51.428;21.162;2024-03-23T08:01:17;9.70;99.90
44886;DHT22;36669;51.428;21.162;2024-03-23T08:03:45;9.70;99.90
44886;DHT22;36669;51.428;21.162;2024-03-23T08:06:13;9.70;99.90
44886;DHT22;36669;51.428;21.162;2024-03-23T08:08:41;9.80;99.90
44886;DHT22;36669;51.428;21.162;2024-03-23T08:11:08;9.80;99.90
44886;DHT22;36669;51.428;21.162;2024-03-23T08:13:35;9.80;99.90
44886;DHT22;36669;51.428;21.162;2024-03-23T08:16:05;9.80;99.90
44886;DHT22;36669;51.428;21.162;2024-03-23T08:18:34;9.90;99.90
44886;DHT22;36669;51.428;21.162;2024-03-23T08:21:04;9.90;99.90
44886;DHT22;36669;51.428;21.162;2024-03-23T08:23:33;9.90;99.90
44886;DHT22;36669;51.428;21.162;2024-03-23T08:26:07;10.00;99.90
44886;DHT22;36669;51.428;21.162;2024-03-23T08:28:44;10.00;99.90
44886;DHT22;36669;51.428;21.162;2024-03-23T08:31:13;10.00;99.90
44886;DHT22;36669;51.428;21.162;2024-03-23T08:33:42;10.00;99.90
44886;DHT22;36669;51.428;21.162;2024-03-23T08:36:10;10.00;99.90
44886;DHT22;36669;51.428;21.162;2024-03-23T08:38:42;10.00;99.90
44886;DHT22;36669;51.428;21.162;2024-03-23T08:41:11;10.10;99.90
44886;DHT22;36669;51.428;21.162;2024-03-23T08:43:41;10.10;99.90
44886;DHT22;36669;51.428;21.162;2024-03-23T08:46:13;10.10;99.90
44886;DHT22;36669;51.428;21.162;2024-03-23T08:48:46;10.10;99.90
44886;DHT22;36669;51.428;21.162;2024-03-23T08:51:16;10.00;99.90
44886;DHT22;36669;51.428;21.162;2024-03-23T08:53:42;10.00;99.90
44886;DHT22;36669;51.428;21.162;2024-03-23T08:56:10;10.00;99.90
44886;DHT22;36669;51.428;21.162;2024-03-23T08:58:38;9.90;99.90
44886;DHT22;36669;51.428;21.162;2024-03-23T09:01:09;9.90;99.90
44886;DHT22;36669;51.428;21.162;2024-03-23T09:03:37;9.90;99.90
44886;DHT22;36669;51.428;21.162;2024-03-23T09:06:13;10.00;99.90
44886;DHT22;36669;51.428;21.162;2024-03-23T09:08:42;10.00;99.90
44886;DHT22;36669;51.428;21.162;2024-03-23T09:11:11;10.10;99.90
44886;DHT22;36669;51.428;21.162;2024-03-23T09:13:39;10.10;99.90
44886;DHT22;36669;51.428;21.162;2024-03-23T09:16:06;10.10;99.90
44886;DHT22;36669;51.428;21.162;2024-03-23T09:18:35;10.20;99.90
44886;DHT22;36669;51.428;21.162;2024-03-23T09:21:11;10.20;99.90
44886;DHT22;36669;51.428;21.162;2024-03-23T09:23:38;10.30;99.90
44886;DHT22;36669;51.428;21.162;2024-03-23T09:26:04;10.40;99.90
44886;DHT22;36669;51.428;21.162;2024-03-23T09:28:31;10.60;99.90
44886;DHT22;36669;51.428;21.162;2024-03-23T09:31:08;10.70;99.90
44886;DHT22;36669;51.428;21.162;2024-03-23T09:33:36;10.80;99.90
44886;DHT22;36669;51.428;21.162;2024-03-23T09:36:06;10.90;99.90
44886;DHT22;36669;51.428;21.162;2024-03-23T09:38:34;11.00;99.90
44886;DHT22;36669;51.428;21.162;2024-03-23T09:41:08;11.10;99.90
44886;DHT22;36669;51.428;21.162;2024-03-23T09:43:34;11.20;99.90
44886;DHT22;36669;51.428;21.162;2024-03-23T09:46:04;11.20;99.90
44886;DHT22;36669;51.428;21.162;2024-03-23T09:48:32;11.30;99.90
44886;DHT22;36669;51.428;21.162;2024-03-23T09:51:00;11.40;99.90
44886;DHT22;36669;51.428;21.162;2024-03-23T09:53:30;11.50;99.90
44886;DHT22;36669;51.428;21.162;2024-03-23T09:55:57;11.60;99.90
44886;DHT22;36669;51.428;21.162;2024-03-23T09:58:24;11.70;99.90
44886;DHT22;36669;51.428;21.162;2024-03-23T10:00:51;11.90;99.90
44886;DHT22;36669;51.428;21.162;2024-03-23T10:03:17;12.00;99.90
44886;DHT22;36669;51.428;21.162;2024-03-23T10:05:46;12.20;99.90
44886;DHT22;36669;51.428;21.162;2024-03-23T10:08:18;12.30;99.90
44886;DHT22;36669;51.428;21.162;2024-03-23T10:10:45;12.40;99.90
44886;DHT22;36669;51.428;21.162;2024-03-23T10:13:23;12.60;99.90
44886;DHT22;36669;51.428;21.162;2024-03-23T10:15:57;12.70;99.90
44886;DHT22;36669;51.428;21.162;2024-03-23T10:18:24;12.90;99.90
44886;DHT22;36669;51.428;21.162;2024-03-23T10:21:10;13.20;99.90
44886;DHT22;36669;51.428;21.162;2024-03-23T10:23:42;13.40;99.90
44886;DHT22;36669;51.428;21.162;2024-03-23T10:26:26;13.80;99.90
44886;DHT22;36669;51.428;21.162;2024-03-23T10:29:01;13.90;99.90
44886;DHT22;36669;51.428;21.162;2024-03-23T10:31:28;14.20;99.90
44886;DHT22;36669;51.428;21.162;2024-03-23T10:33:54;14.40;99.90
44886;DHT22;36669;51.428;21.162;2024-03-23T10:36:25;14.70;99.90
44886;DHT22;36669;51.428;21.162;2024-03-23T10:38:54;14.70;99.90
44886;DHT22;36669;51.428;21.162;2024-03-23T10:41:20;14.80;99.90
44886;DHT22;36669;51.428;21.162;2024-03-23T10:43:48;15.20;99.90
44886;DHT22;36669;51.428;21.162;2024-03-23T10:46:15;15.40;99.90
44886;DHT22;36669;51.428;21.162;2024-03-23T10:48:56;15.50;99.90
44886;DHT22;36669;51.428;21.162;2024-03-23T10:51:23;15.80;99.90
44886;DHT22;36669;51.428;21.162;2024-03-23T10:53:50;15.80;99.90
44886;DHT22;36669;51.428;21.162;2024-03-23T10:56:19;15.90;99.90
44886;DHT22;36669;51.428;21.162;2024-03-23T10:58:48;16.00;99.90
44886;DHT22;36669;51.428;21.162;2024-03-23T11:01:15;15.70;99.90
44886;DHT22;36669;51.428;21.162;2024-03-23T11:03:47;15.50;99.90
44886;DHT22;36669;51.428;21.162;2024-03-23T11:06:38;15.50;99.90
44886;DHT22;36669;51.428;21.162;2024-03-23T11:09:37;15.70;99.90
44886;DHT22;36669;51.428;21.162;2024-03-23T11:11:53;15.90;99.90
44886;DHT22;36669;51.428;21.162;2024-03-23T11:14:23;16.10;99.90
44886;DHT22;36669;51.428;21.162;2024-03-23T11:17:08;16.00;99.90
44886;DHT22;36669;51.428;21.162;2024-03-23T11:19:38;16.00;99.90
44886;DHT22;36669;51.428;21.162;2024-03-23T11:22:06;16.10;99.90
44886;DHT22;36669;51.428;21.162;2024-03-23T11:24:35;16.40;99.90
44886;DHT22;36669;51.428;21.162;2024-03-23T11:27:16;16.70;99.90
44886;DHT22;36669;51.428;21.162;2024-03-23T11:29:43;16.60;99.90
44886;DHT22;36669;51.428;21.162;2024-03-23T11:32:10;16.90;99.90
44886;DHT22;36669;51.428;21.162;2024-03-23T11:34:38;16.80;99.90
44886;DHT22;36669;51.428;21.162;2024-03-23T11:37:05;16.90;99.90
44886;DHT22;36669;51.428;21.162;2024-03-23T11:39:33;17.00;99.90
44886;DHT22;36669;51.428;21.162;2024-03-23T11:42:01;17.20;99.90
44886;DHT22;36669;51.428;21.162;2024-03-23T11:44:30;17.60;99.90
44886;DHT22;36669;51.428;21.162;2024-03-23T11:47:07;17.60;99.90
44886;DHT22;36669;51.428;21.162;2024-03-23T11:49:34;17.60;99.90
44886;DHT22;36669;51.428;21.162;2024-03-23T11:52:06;17.40;99.90
44886;DHT22;36669;51.428;21.162;2024-03-23T11:54:31;17.30;99.90
44886;DHT22;36669;51.428;21.162;2024-03-23T11:57:00;17.60;99.90
44886;DHT22;36669;51.428;21.162;2024-03-23T11:59:41;17.70;99.90
44886;DHT22;36669;51.428;21.162;2024-03-23T12:02:12;17.80;99.90
44886;DHT22;36669;51.428;21.162;2024-03-23T12:04:42;17.90;99.90
44886;DHT22;36669;51.428;21.162;2024-03-23T12:07:18;18.30;99.90
44886;DHT22;36669;51.428;21.162;2024-03-23T12:09:45;18.50;99.90
44886;DHT22;36669;51.428;21.162;2024-03-23T12:15:03;18.50;99.90
44886;DHT22;36669;51.428;21.162;2024-03-23T12:17:30;18.70;99.90
44886;DHT22;36669;51.428;21.162;2024-03-23T12:19:57;19.00;99.90
44886;DHT22;36669;51.428;21.162;2024-03-23T12:22:25;19.10;99.90
44886;DHT22;36669;51.428;21.162;2024-03-23T12:24:52;17.90;99.90
44886;DHT22;36669;51.428;21.162;2024-03-23T12:27:17;17.70;99.90
44886;DHT22;36669;51.428;21.162;2024-03-23T12:29:44;17.70;99.90
44886;DHT22;36669;51.428;21.162;2024-03-23T12:32:13;18.30;99.90
44886;DHT22;36669;51.428;21.162;2024-03-23T12:34:41;17.50;99.90
44886;DHT22;36669;51.428;21.162;2024-03-23T12:37:10;17.40;99.90
44886;DHT22;36669;51.428;21.162;2024-03-23T12:39:36;17.00;99.90
44886;DHT22;36669;51.428;21.162;2024-03-23T12:42:02;17.00;99.90
44886;DHT22;36669;51.428;21.162;2024-03-23T12:44:28;16.80;99.90
44886;DHT22;36669;51.428;21.162;2024-03-23T12:46:55;17.10;99.90
44886;DHT22;36669;51.428;21.162;2024-03-23T12:49:21;17.50;99.90
44886;DHT22;36669;51.428;21.162;2024-03-23T12:51:54;18.20;99.90
44886;DHT22;36669;51.428;21.162;2024-03-23T12:54:26;18.90;99.90
44886;DHT22;36669;51.428;21.162;2024-03-23T12:56:52;19.00;99.20
44886;DHT22;36669;51.428;21.162;2024-03-23T12:59:18;19.40;98.90
44886;DHT22;36669;51.428;21.162;2024-03-23T13:01:48;18.90;99.90
44886;DHT22;36669;51.428;21.162;2024-03-23T13:04:16;19.10;98.70
44886;DHT22;36669;51.428;21.162;2024-03-23T13:06:46;19.50;98.70
44886;DHT22;36669;51.428;21.162;2024-03-23T13:09:12;19.50;97.60
44886;DHT22;36669;51.428;21.162;2024-03-23T13:11:38;19.30;97.40
44886;DHT22;36669;51.428;21.162;2024-03-23T13:14:05;19.10;97.30
44886;DHT22;36669;51.428;21.162;2024-03-23T13:16:31;18.90;97.70
44886;DHT22;36669;51.428;21.162;2024-03-23T13:19:00;18.80;97.90
44886;DHT22;36669;51.428;21.162;2024-03-23T13:21:27;18.80;98.50
44886;DHT22;36669;51.428;21.162;2024-03-23T13:23:54;18.70;98.20
44886;DHT22;36669;51.428;21.162;2024-03-23T13:26:21;18.90;98.80
44886;DHT22;36669;51.428;21.162;2024-03-23T13:28:48;19.50;97.90
44886;DHT22;36669;51.428;21.162;2024-03-23T13:31:15;20.00;96.90
44886;DHT22;36669;51.428;21.162;2024-03-23T13:33:42;20.10;95.50
44886;DHT22;36669;51.428;21.162;2024-03-23T13:36:11;19.80;94.80
44886;DHT22;36669;51.428;21.162;2024-03-23T13:38:36;19.40;95.10
44886;DHT22;36669;51.428;21.162;2024-03-23T13:41:03;19.20;95.70
44886;DHT22;36669;51.428;21.162;2024-03-23T13:43:31;19.10;95.70
44886;DHT22;36669;51.428;21.162;2024-03-23T13:45:59;19.00;95.50
44886;DHT22;36669;51.428;21.162;2024-03-23T13:48:26;19.20;95.90
44886;DHT22;36669;51.428;21.162;2024-03-23T13:51:04;19.40;96.50
44886;DHT22;36669;51.428;21.162;2024-03-23T13:53:31;20.00;96.20
44886;DHT22;36669;51.428;21.162;2024-03-23T13:55:58;20.60;95.00
44886;DHT22;36669;51.428;21.162;2024-03-23T13:58:25;20.50;93.20
44886;DHT22;36669;51.428;21.162;2024-03-23T14:00:51;20.30;92.60
44886;DHT22;36669;51.428;21.162;2024-03-23T14:03:17;20.10;92.00
44886;DHT22;36669;51.428;21.162;2024-03-23T14:05:45;19.80;92.80
44886;DHT22;36669;51.428;21.162;2024-03-23T14:08:12;19.60;92.40
44886;DHT22;36669;51.428;21.162;2024-03-23T14:10:42;19.50;92.80
44886;DHT22;36669;51.428;21.162;2024-03-23T14:13:09;19.20;92.40
44886;DHT22;36669;51.428;21.162;2024-03-23T14:15:35;18.90;92.80
44886;DHT22;36669;51.428;21.162;2024-03-23T14:18:05;18.70;93.40
44886;DHT22;36669;51.428;21.162;2024-03-23T14:20:33;18.60;93.60
44886;DHT22;36669;51.428;21.162;2024-03-23T14:22:59;18.60;94.00
44886;DHT22;36669;51.428;21.162;2024-03-23T14:25:28;18.60;94.20
44886;DHT22;36669;51.428;21.162;2024-03-23T14:27:56;19.00;93.80
44886;DHT22;36669;51.428;21.162;2024-03-23T14:30:25;19.50;92.90
44886;DHT22;36669;51.428;21.162;2024-03-23T14:32:52;19.70;91.30
44886;DHT22;36669;51.428;21.162;2024-03-23T14:35:19;19.50;90.60
44886;DHT22;36669;51.428;21.162;2024-03-23T14:37:46;19.10;91.40
44886;DHT22;36669;51.428;21.162;2024-03-23T14:40:14;18.70;91.50
44886;DHT22;36669;51.428;21.162;2024-03-23T14:42:40;18.40;91.90
44886;DHT22;36669;51.428;21.162;2024-03-23T14:45:09;18.40;92.60
44886;DHT22;36669;51.428;21.162;2024-03-23T14:47:38;18.30;92.20
44886;DHT22;36669;51.428;21.162;2024-03-23T14:50:04;18.70;92.10
44886;DHT22;36669;51.428;21.162;2024-03-23T14:52:30;19.20;91.20
44886;DHT22;36669;51.428;21.162;2024-03-23T14:54:55;19.40;90.50
44886;DHT22;36669;51.428;21.162;2024-03-23T14:57:22;19.60;90.50
44886;DHT22;36669;51.428;21.162;2024-03-23T14:59:49;19.70;90.40
44886;DHT22;36669;51.428;21.162;2024-03-23T15:02:16;19.70;90.30
44886;DHT22;36669;51.428;21.162;2024-03-23T15:04:44;19.10;90.30
44886;DHT22;36669;51.428;21.162;2024-03-23T15:07:10;18.70;91.30
44886;DHT22;36669;51.428;21.162;2024-03-23T15:09:37;18.20;91.50
44886;DHT22;36669;51.428;21.162;2024-03-23T15:12:05;17.90;92.20
44886;DHT22;36669;51.428;21.162;2024-03-23T15:14:34;17.80;92.50
44886;DHT22;36669;51.428;21.162;2024-03-23T15:17:02;17.60;93.10
44886;DHT22;36669;51.428;21.162;2024-03-23T15:19:35;17.40;93.70
44886;DHT22;36669;51.428;21.162;2024-03-23T15:22:00;17.20;94.10
44886;DHT22;36669;51.428;21.162;2024-03-23T15:24:27;17.10;94.30
44886;DHT22;36669;51.428;21.162;2024-03-23T15:26:55;16.90;94.80
44886;DHT22;36669;51.428;21.162;2024-03-23T15:29:21;16.80;95.90
44886;DHT22;36669;51.428;21.162;2024-03-23T15:31:49;16.70;96.70
44886;DHT22;36669;51.428;21.162;2024-03-23T15:34:19;16.60;97.60
44886;DHT22;36669;51.428;21.162;2024-03-23T15:36:48;16.50;98.20
44886;DHT22;36669;51.428;21.162;2024-03-23T15:39:20;16.30;99.90
44886;DHT22;36669;51.428;21.162;2024-03-23T15:41:51;15.30;99.90
44886;DHT22;36669;51.428;21.162;2024-03-23T15:44:17;13.80;99.90
44886;DHT22;36669;51.428;21.162;2024-03-23T15:46:43;11.90;99.90
44886;DHT22;36669;51.428;21.162;2024-03-23T15:49:10;11.10;99.90
44886;DHT22;36669;51.428;21.162;2024-03-23T15:51:36;10.80;99.90
44886;DHT22;36669;51.428;21.162;2024-03-23T15:54:04;10.80;99.90
44886;DHT22;36669;51.428;21.162;2024-03-23T15:56:31;10.70;99.90
44886;DHT22;36669;51.428;21.162;2024-03-23T15:58:57;10.70;99.90
44886;DHT22;36669;51.428;21.162;2024-03-23T16:01:32;10.70;99.90
44886;DHT22;36669;51.428;21.162;2024-03-23T16:04:06;10.70;99.90
44886;DHT22;36669;51.428;21.162;2024-03-23T16:06:31;10.70;99.90
44886;DHT22;36669;51.428;21.162;2024-03-23T16:08:59;10.60;99.90
44886;DHT22;36669;51.428;21.162;2024-03-23T16:11:24;10.60;99.90
44886;DHT22;36669;51.428;21.162;2024-03-23T16:13:51;10.70;99.90
44886;DHT22;36669;51.428;21.162;2024-03-23T16:16:18;10.70;99.90
44886;DHT22;36669;51.428;21.162;2024-03-23T16:18:47;10.80;99.90
44886;DHT22;36669;51.428;21.162;2024-03-23T16:21:14;10.80;99.90
44886;DHT22;36669;51.428;21.162;2024-03-23T16:23:42;10.80;99.90
44886;DHT22;36669;51.428;21.162;2024-03-23T16:26:10;10.80;99.90